CheckWX is a tool to help pilots better visualize weather data.  It is not intended as a substitute for an official pre-flight weather briefing.

14:47:25 UTC

KONT TAF
Ontario International Airport
Ontario, California, USA
KONT 271122Z 2712/2818 VRB04KT P6SM SKC FM271400 VRB03KT 5SM HZ SKC FM272000 25012G20KT P6SM SKC FM280400 VRB05KT P6SM SKC

May-27@
12:00 UTC

May-27 @ 12:00 UTC

May-27@
14:00 UTC

May-27 @ 14:00 UTC

TAF KONT 271122Z 2712/2818 VRB04KT P6SM SKC

Expired

Wind
  • Variable at 4 KTS
Cloud Levels
  • Clear skies

May-27@
14:00 UTC

May-27 @ 14:00 UTC

May-27@
20:00 UTC

May-27 @ 20:00 UTC

FM271400 VRB03KT 5SM HZ SKC

Expired

Wind
  • Variable at 3 KTS
Conditions
Haze
Cloud Levels
  • Clear skies

May-27@
20:00 UTC

May-27 @ 20:00 UTC

May-28@
04:00 UTC

May-28 @ 04:00 UTC

FM272000 25012G20KT P6SM SKC

Expired

Wind
  • 250° at 12 KTS
  • {Gusting to 20 KTS
Cloud Levels
  • Clear skies

May-28@
04:00 UTC

May-28 @ 04:00 UTC

May-28@
18:00 UTC

May-28 @ 18:00 UTC

FM280400 VRB05KT P6SM SKC

From

From Standard forecast or significant change

Wind
  • Variable at 5 KTS
Cloud Levels
  • Clear skies